sensor_id;sensor_type;location;lat;lon;timestamp;P1;durP1;ratioP1;P2;durP2;ratioP2
42590;SDS011;28218;53.342;-6.216;2023-05-16T00:01:49;3.45;;;0.80;;
42590;SDS011;28218;53.342;-6.216;2023-05-16T00:04:17;5.75;;;1.52;;
42590;SDS011;28218;53.342;-6.216;2023-05-16T00:06:46;3.53;;;1.00;;
42590;SDS011;28218;53.342;-6.216;2023-05-16T00:09:15;3.05;;;1.02;;
42590;SDS011;28218;53.342;-6.216;2023-05-16T00:11:43;10.27;;;1.30;;
42590;SDS011;28218;53.342;-6.216;2023-05-16T00:14:13;6.60;;;1.00;;
42590;SDS011;28218;53.342;-6.216;2023-05-16T00:16:42;5.82;;;1.25;;
42590;SDS011;28218;53.342;-6.216;2023-05-16T00:19:10;5.88;;;1.20;;
42590;SDS011;28218;53.342;-6.216;2023-05-16T00:21:39;6.93;;;1.67;;
42590;SDS011;28218;53.342;-6.216;2023-05-16T00:24:07;5.20;;;1.05;;
42590;SDS011;28218;53.342;-6.216;2023-05-16T00:26:35;4.45;;;1.30;;
42590;SDS011;28218;53.342;-6.216;2023-05-16T00:29:03;5.57;;;1.27;;
42590;SDS011;28218;53.342;-6.216;2023-05-16T00:31:33;3.67;;;1.30;;
42590;SDS011;28218;53.342;-6.216;2023-05-16T00:34:02;4.75;;;1.40;;
42590;SDS011;28218;53.342;-6.216;2023-05-16T00:36:30;4.35;;;1.25;;
42590;SDS011;28218;53.342;-6.216;2023-05-16T00:38:58;2.65;;;1.30;;
42590;SDS011;28218;53.342;-6.216;2023-05-16T00:41:26;3.08;;;1.45;;
42590;SDS011;28218;53.342;-6.216;2023-05-16T00:43:54;4.78;;;1.00;;
42590;SDS011;28218;53.342;-6.216;2023-05-16T00:46:23;4.47;;;1.50;;
42590;SDS011;28218;53.342;-6.216;2023-05-16T00:48:52;5.70;;;1.27;;
42590;SDS011;28218;53.342;-6.216;2023-05-16T00:51:20;5.57;;;3.05;;
42590;SDS011;28218;53.342;-6.216;2023-05-16T00:53:49;4.10;;;1.15;;
42590;SDS011;28218;53.342;-6.216;2023-05-16T00:56:17;4.72;;;1.15;;
42590;SDS011;28218;53.342;-6.216;2023-05-16T00:58:45;7.43;;;1.52;;
42590;SDS011;28218;53.342;-6.216;2023-05-16T01:01:13;4.00;;;1.63;;
42590;SDS011;28218;53.342;-6.216;2023-05-16T01:03:42;6.43;;;1.67;;
42590;SDS011;28218;53.342;-6.216;2023-05-16T01:06:13;3.78;;;1.35;;
42590;SDS011;28218;53.342;-6.216;2023-05-16T01:08:42;7.75;;;1.00;;
42590;SDS011;28218;53.342;-6.216;2023-05-16T01:11:11;4.30;;;1.30;;
42590;SDS011;28218;53.342;-6.216;2023-05-16T01:13:51;7.50;;;1.65;;
42590;SDS011;28218;53.342;-6.216;2023-05-16T01:16:29;6.80;;;1.35;;
42590;SDS011;28218;53.342;-6.216;2023-05-16T01:19:06;4.95;;;1.00;;
42590;SDS011;28218;53.342;-6.216;2023-05-16T01:21:47;2.70;;;1.23;;
42590;SDS011;28218;53.342;-6.216;2023-05-16T01:24:26;8.10;;;1.55;;
42590;SDS011;28218;53.342;-6.216;2023-05-16T01:27:01;5.93;;;1.73;;
42590;SDS011;28218;53.342;-6.216;2023-05-16T01:29:31;4.45;;;1.33;;
42590;SDS011;28218;53.342;-6.216;2023-05-16T01:31:59;5.93;;;1.40;;
42590;SDS011;28218;53.342;-6.216;2023-05-16T01:34:28;8.80;;;1.35;;
42590;SDS011;28218;53.342;-6.216;2023-05-16T01:36:57;6.90;;;1.10;;
42590;SDS011;28218;53.342;-6.216;2023-05-16T01:39:35;4.90;;;1.38;;
42590;SDS011;28218;53.342;-6.216;2023-05-16T01:42:11;6.60;;;1.35;;
42590;SDS011;28218;53.342;-6.216;2023-05-16T01:44:42;3.10;;;1.50;;
42590;SDS011;28218;53.342;-6.216;2023-05-16T01:47:15;7.22;;;1.23;;
42590;SDS011;28218;53.342;-6.216;2023-05-16T01:49:45;4.22;;;1.27;;
42590;SDS011;28218;53.342;-6.216;2023-05-16T01:52:22;7.55;;;1.48;;
42590;SDS011;28218;53.342;-6.216;2023-05-16T01:54:55;6.05;;;1.10;;
42590;SDS011;28218;53.342;-6.216;2023-05-16T01:57:27;6.60;;;1.98;;
42590;SDS011;28218;53.342;-6.216;2023-05-16T01:59:56;10.23;;;1.17;;
42590;SDS011;28218;53.342;-6.216;2023-05-16T02:02:25;5.25;;;1.77;;
42590;SDS011;28218;53.342;-6.216;2023-05-16T02:04:53;3.58;;;1.40;;
42590;SDS011;28218;53.342;-6.216;2023-05-16T02:07:21;7.32;;;1.38;;
42590;SDS011;28218;53.342;-6.216;2023-05-16T02:09:50;3.22;;;0.90;;
42590;SDS011;28218;53.342;-6.216;2023-05-16T02:12:18;6.15;;;1.55;;
42590;SDS011;28218;53.342;-6.216;2023-05-16T02:14:48;8.27;;;1.42;;
42590;SDS011;28218;53.342;-6.216;2023-05-16T02:17:17;6.82;;;1.63;;
42590;SDS011;28218;53.342;-6.216;2023-05-16T02:19:45;8.10;;;1.73;;
42590;SDS011;28218;53.342;-6.216;2023-05-16T02:22:13;5.35;;;1.30;;
42590;SDS011;28218;53.342;-6.216;2023-05-16T02:24:42;6.85;;;2.13;;
42590;SDS011;28218;53.342;-6.216;2023-05-16T02:27:10;1.73;;;0.88;;
42590;SDS011;28218;53.342;-6.216;2023-05-16T02:29:38;3.33;;;1.52;;
42590;SDS011;28218;53.342;-6.216;2023-05-16T02:32:08;5.07;;;1.45;;
42590;SDS011;28218;53.342;-6.216;2023-05-16T02:34:36;5.35;;;1.40;;
42590;SDS011;28218;53.342;-6.216;2023-05-16T02:37:04;7.55;;;1.65;;
42590;SDS011;28218;53.342;-6.216;2023-05-16T02:39:32;5.85;;;1.50;;
42590;SDS011;28218;53.342;-6.216;2023-05-16T02:42:00;5.82;;;1.60;;
42590;SDS011;28218;53.342;-6.216;2023-05-16T02:44:29;8.73;;;1.48;;
42590;SDS011;28218;53.342;-6.216;2023-05-16T02:46:57;5.18;;;1.45;;
42590;SDS011;28218;53.342;-6.216;2023-05-16T02:49:26;7.00;;;1.80;;
42590;SDS011;28218;53.342;-6.216;2023-05-16T02:51:55;9.75;;;2.10;;
42590;SDS011;28218;53.342;-6.216;2023-05-16T02:54:23;5.53;;;1.67;;
42590;SDS011;28218;53.342;-6.216;2023-05-16T02:56:51;2.92;;;1.55;;
42590;SDS011;28218;53.342;-6.216;2023-05-16T02:59:20;3.47;;;1.45;;
42590;SDS011;28218;53.342;-6.216;2023-05-16T03:01:48;10.65;;;1.90;;
42590;SDS011;28218;53.342;-6.216;2023-05-16T03:04:16;3.53;;;1.30;;
42590;SDS011;28218;53.342;-6.216;2023-05-16T03:06:46;5.15;;;2.25;;
42590;SDS011;28218;53.342;-6.216;2023-05-16T03:09:14;6.28;;;2.63;;
42590;SDS011;28218;53.342;-6.216;2023-05-16T03:11:42;6.18;;;1.80;;
42590;SDS011;28218;53.342;-6.216;2023-05-16T03:14:10;4.80;;;1.38;;
42590;SDS011;28218;53.342;-6.216;2023-05-16T03:16:39;4.30;;;1.65;;
42590;SDS011;28218;53.342;-6.216;2023-05-16T03:19:09;3.13;;;1.20;;
42590;SDS011;28218;53.342;-6.216;2023-05-16T03:21:37;4.55;;;1.50;;
42590;SDS011;28218;53.342;-6.216;2023-05-16T03:24:08;3.33;;;1.15;;
42590;SDS011;28218;53.342;-6.216;2023-05-16T03:26:37;7.88;;;1.50;;
42590;SDS011;28218;53.342;-6.216;2023-05-16T03:29:05;4.07;;;1.45;;
42590;SDS011;28218;53.342;-6.216;2023-05-16T03:31:33;5.88;;;1.20;;
42590;SDS011;28218;53.342;-6.216;2023-05-16T03:34:02;5.68;;;1.35;;
42590;SDS011;28218;53.342;-6.216;2023-05-16T03:36:30;5.10;;;1.25;;
42590;SDS011;28218;53.342;-6.216;2023-05-16T03:38:58;6.40;;;1.63;;
42590;SDS011;28218;53.342;-6.216;2023-05-16T03:41:28;3.80;;;1.30;;
42590;SDS011;28218;53.342;-6.216;2023-05-16T03:43:56;11.48;;;1.80;;
42590;SDS011;28218;53.342;-6.216;2023-05-16T03:46:24;2.65;;;1.63;;
42590;SDS011;28218;53.342;-6.216;2023-05-16T03:48:53;6.20;;;1.27;;
42590;SDS011;28218;53.342;-6.216;2023-05-16T03:51:21;7.43;;;1.60;;
42590;SDS011;28218;53.342;-6.216;2023-05-16T03:53:49;5.65;;;1.95;;
42590;SDS011;28218;53.342;-6.216;2023-05-16T03:56:17;8.02;;;1.40;;
42590;SDS011;28218;53.342;-6.216;2023-05-16T03:58:48;7.88;;;1.35;;
42590;SDS011;28218;53.342;-6.216;2023-05-16T04:01:16;8.35;;;2.05;;
42590;SDS011;28218;53.342;-6.216;2023-05-16T04:03:45;3.72;;;1.40;;
42590;SDS011;28218;53.342;-6.216;2023-05-16T04:06:13;7.10;;;1.50;;
42590;SDS011;28218;53.342;-6.216;2023-05-16T04:08:41;3.40;;;1.33;;
42590;SDS011;28218;53.342;-6.216;2023-05-16T04:11:10;2.60;;;1.15;;
42590;SDS011;28218;53.342;-6.216;2023-05-16T04:13:38;3.72;;;1.25;;
42590;SDS011;28218;53.342;-6.216;2023-05-16T04:16:08;4.88;;;1.35;;
42590;SDS011;28218;53.342;-6.216;2023-05-16T04:18:36;4.13;;;1.50;;
42590;SDS011;28218;53.342;-6.216;2023-05-16T04:21:04;4.38;;;1.50;;
42590;SDS011;28218;53.342;-6.216;2023-05-16T04:23:33;6.95;;;1.77;;
42590;SDS011;28218;53.342;-6.216;2023-05-16T04:26:01;4.65;;;1.25;;
42590;SDS011;28218;53.342;-6.216;2023-05-16T04:28:30;4.13;;;1.42;;
42590;SDS011;28218;53.342;-6.216;2023-05-16T04:30:58;6.07;;;1.42;;
42590;SDS011;28218;53.342;-6.216;2023-05-16T04:33:28;5.80;;;1.55;;
42590;SDS011;28218;53.342;-6.216;2023-05-16T04:35:56;5.22;;;1.77;;
42590;SDS011;28218;53.342;-6.216;2023-05-16T04:38:25;8.40;;;1.60;;
42590;SDS011;28218;53.342;-6.216;2023-05-16T04:40:53;3.90;;;1.23;;
42590;SDS011;28218;53.342;-6.216;2023-05-16T04:43:22;4.88;;;1.48;;
42590;SDS011;28218;53.342;-6.216;2023-05-16T04:45:50;12.68;;;1.75;;
42590;SDS011;28218;53.342;-6.216;2023-05-16T04:48:19;6.95;;;1.75;;
42590;SDS011;28218;53.342;-6.216;2023-05-16T04:50:49;9.15;;;2.25;;
42590;SDS011;28218;53.342;-6.216;2023-05-16T04:53:17;10.35;;;1.55;;
42590;SDS011;28218;53.342;-6.216;2023-05-16T04:55:46;20.67;;;3.67;;
42590;SDS011;28218;53.342;-6.216;2023-05-16T04:58:14;3.10;;;1.40;;
42590;SDS011;28218;53.342;-6.216;2023-05-16T05:00:42;9.27;;;2.63;;
42590;SDS011;28218;53.342;-6.216;2023-05-16T05:03:10;11.05;;;2.17;;
42590;SDS011;28218;53.342;-6.216;2023-05-16T05:05:38;5.93;;;1.48;;
42590;SDS011;28218;53.342;-6.216;2023-05-16T05:08:08;8.55;;;1.58;;
42590;SDS011;28218;53.342;-6.216;2023-05-16T05:10:36;5.30;;;1.55;;
42590;SDS011;28218;53.342;-6.216;2023-05-16T05:13:04;9.55;;;1.70;;
42590;SDS011;28218;53.342;-6.216;2023-05-16T05:15:33;13.13;;;2.22;;
42590;SDS011;28218;53.342;-6.216;2023-05-16T05:18:01;8.95;;;2.22;;
42590;SDS011;28218;53.342;-6.216;2023-05-16T05:20:30;10.73;;;2.13;;
42590;SDS011;28218;53.342;-6.216;2023-05-16T05:22:58;8.82;;;2.00;;
42590;SDS011;28218;53.342;-6.216;2023-05-16T05:25:27;6.70;;;1.60;;
42590;SDS011;28218;53.342;-6.216;2023-05-16T05:27:56;6.63;;;3.10;;
42590;SDS011;28218;53.342;-6.216;2023-05-16T05:30:24;11.52;;;2.15;;
42590;SDS011;28218;53.342;-6.216;2023-05-16T05:32:52;7.47;;;1.85;;
42590;SDS011;28218;53.342;-6.216;2023-05-16T05:35:21;10.30;;;1.73;;
42590;SDS011;28218;53.342;-6.216;2023-05-16T05:37:50;6.45;;;1.85;;
42590;SDS011;28218;53.342;-6.216;2023-05-16T05:40:19;4.95;;;1.60;;
42590;SDS011;28218;53.342;-6.216;2023-05-16T05:42:48;7.88;;;1.90;;
42590;SDS011;28218;53.342;-6.216;2023-05-16T05:45:16;7.50;;;2.25;;
42590;SDS011;28218;53.342;-6.216;2023-05-16T05:47:45;4.60;;;1.70;;
42590;SDS011;28218;53.342;-6.216;2023-05-16T05:50:13;10.02;;;2.78;;
42590;SDS011;28218;53.342;-6.216;2023-05-16T05:52:42;9.98;;;2.92;;
42590;SDS011;28218;53.342;-6.216;2023-05-16T05:55:10;13.27;;;2.45;;
42590;SDS011;28218;53.342;-6.216;2023-05-16T05:57:38;9.55;;;3.22;;
42590;SDS011;28218;53.342;-6.216;2023-05-16T06:00:08;9.93;;;1.90;;
42590;SDS011;28218;53.342;-6.216;2023-05-16T06:02:38;8.05;;;2.40;;
42590;SDS011;28218;53.342;-6.216;2023-05-16T06:05:07;5.38;;;1.77;;
42590;SDS011;28218;53.342;-6.216;2023-05-16T06:07:36;9.05;;;1.92;;
42590;SDS011;28218;53.342;-6.216;2023-05-16T06:10:04;11.07;;;2.10;;
42590;SDS011;28218;53.342;-6.216;2023-05-16T06:12:34;6.82;;;1.98;;
42590;SDS011;28218;53.342;-6.216;2023-05-16T06:15:02;9.00;;;2.33;;
42590;SDS011;28218;53.342;-6.216;2023-05-16T06:17:32;5.60;;;2.00;;
42590;SDS011;28218;53.342;-6.216;2023-05-16T06:20:00;7.75;;;1.85;;
42590;SDS011;28218;53.342;-6.216;2023-05-16T06:22:29;12.02;;;2.38;;
42590;SDS011;28218;53.342;-6.216;2023-05-16T06:24:58;11.57;;;2.55;;
42590;SDS011;28218;53.342;-6.216;2023-05-16T06:27:26;7.63;;;1.77;;
42590;SDS011;28218;53.342;-6.216;2023-05-16T06:29:54;13.40;;;2.05;;
42590;SDS011;28218;53.342;-6.216;2023-05-16T06:32:23;12.07;;;3.03;;
42590;SDS011;28218;53.342;-6.216;2023-05-16T06:34:52;11.57;;;2.20;;
42590;SDS011;28218;53.342;-6.216;2023-05-16T06:37:21;10.13;;;2.03;;
42590;SDS011;28218;53.342;-6.216;2023-05-16T06:39:50;7.40;;;1.70;;
42590;SDS011;28218;53.342;-6.216;2023-05-16T06:42:18;7.82;;;1.92;;
42590;SDS011;28218;53.342;-6.216;2023-05-16T06:44:47;15.18;;;2.30;;
42590;SDS011;28218;53.342;-6.216;2023-05-16T06:47:15;11.10;;;1.63;;
42590;SDS011;28218;53.342;-6.216;2023-05-16T06:49:43;10.68;;;2.00;;
42590;SDS011;28218;53.342;-6.216;2023-05-16T06:52:13;10.75;;;2.20;;
42590;SDS011;28218;53.342;-6.216;2023-05-16T06:54:41;8.13;;;2.58;;
42590;SDS011;28218;53.342;-6.216;2023-05-16T06:57:09;8.23;;;2.15;;
42590;SDS011;28218;53.342;-6.216;2023-05-16T06:59:38;9.63;;;2.35;;
42590;SDS011;28218;53.342;-6.216;2023-05-16T07:02:07;7.75;;;3.15;;
42590;SDS011;28218;53.342;-6.216;2023-05-16T07:04:35;7.78;;;2.22;;
42590;SDS011;28218;53.342;-6.216;2023-05-16T07:07:04;12.15;;;3.00;;
42590;SDS011;28218;53.342;-6.216;2023-05-16T07:09:35;6.82;;;2.35;;
42590;SDS011;28218;53.342;-6.216;2023-05-16T07:12:03;9.38;;;2.40;;
42590;SDS011;28218;53.342;-6.216;2023-05-16T07:14:32;6.72;;;2.28;;
42590;SDS011;28218;53.342;-6.216;2023-05-16T07:17:03;13.40;;;2.40;;
42590;SDS011;28218;53.342;-6.216;2023-05-16T07:19:32;9.85;;;2.80;;
42590;SDS011;28218;53.342;-6.216;2023-05-16T07:22:00;8.35;;;2.58;;
42590;SDS011;28218;53.342;-6.216;2023-05-16T07:24:28;11.23;;;3.05;;
42590;SDS011;28218;53.342;-6.216;2023-05-16T07:26:58;8.73;;;2.88;;
42590;SDS011;28218;53.342;-6.216;2023-05-16T07:29:26;11.35;;;3.35;;
42590;SDS011;28218;53.342;-6.216;2023-05-16T07:31:55;13.40;;;3.25;;
42590;SDS011;28218;53.342;-6.216;2023-05-16T07:34:24;13.30;;;3.10;;
42590;SDS011;28218;53.342;-6.216;2023-05-16T07:36:52;14.57;;;3.42;;
42590;SDS011;28218;53.342;-6.216;2023-05-16T07:39:20;8.90;;;3.42;;
42590;SDS011;28218;53.342;-6.216;2023-05-16T07:41:49;11.15;;;3.30;;
42590;SDS011;28218;53.342;-6.216;2023-05-16T07:44:18;13.23;;;3.10;;
42590;SDS011;28218;53.342;-6.216;2023-05-16T07:46:46;12.57;;;3.17;;
42590;SDS011;28218;53.342;-6.216;2023-05-16T07:49:14;18.10;;;3.47;;
42590;SDS011;28218;53.342;-6.216;2023-05-16T07:51:43;11.82;;;3.47;;
42590;SDS011;28218;53.342;-6.216;2023-05-16T07:54:11;15.48;;;2.95;;
42590;SDS011;28218;53.342;-6.216;2023-05-16T07:56:39;13.43;;;3.20;;
42590;SDS011;28218;53.342;-6.216;2023-05-16T07:59:07;7.93;;;3.08;;
42590;SDS011;28218;53.342;-6.216;2023-05-16T08:01:37;17.40;;;4.70;;
42590;SDS011;28218;53.342;-6.216;2023-05-16T08:04:05;14.13;;;3.95;;
42590;SDS011;28218;53.342;-6.216;2023-05-16T08:06:34;8.95;;;3.47;;
42590;SDS011;28218;53.342;-6.216;2023-05-16T08:09:02;16.67;;;3.35;;
42590;SDS011;28218;53.342;-6.216;2023-05-16T08:11:31;20.92;;;4.07;;
42590;SDS011;28218;53.342;-6.216;2023-05-16T08:13:59;17.45;;;4.57;;
42590;SDS011;28218;53.342;-6.216;2023-05-16T08:16:27;16.52;;;3.97;;
42590;SDS011;28218;53.342;-6.216;2023-05-16T08:18:58;13.75;;;3.50;;
42590;SDS011;28218;53.342;-6.216;2023-05-16T08:21:26;16.55;;;3.72;;
42590;SDS011;28218;53.342;-6.216;2023-05-16T08:23:55;13.85;;;3.47;;
42590;SDS011;28218;53.342;-6.216;2023-05-16T08:26:23;12.43;;;4.00;;
42590;SDS011;28218;53.342;-6.216;2023-05-16T08:28:51;19.70;;;3.63;;
42590;SDS011;28218;53.342;-6.216;2023-05-16T08:31:20;14.02;;;4.30;;
42590;SDS011;28218;53.342;-6.216;2023-05-16T08:33:48;13.57;;;4.55;;
42590;SDS011;28218;53.342;-6.216;2023-05-16T08:36:18;14.18;;;3.63;;
42590;SDS011;28218;53.342;-6.216;2023-05-16T08:38:46;13.27;;;3.33;;
42590;SDS011;28218;53.342;-6.216;2023-05-16T08:41:16;17.60;;;4.20;;
42590;SDS011;28218;53.342;-6.216;2023-05-16T08:43:44;11.65;;;3.55;;
42590;SDS011;28218;53.342;-6.216;2023-05-16T08:46:13;17.27;;;3.80;;
42590;SDS011;28218;53.342;-6.216;2023-05-16T08:48:42;13.70;;;3.45;;
42590;SDS011;28218;53.342;-6.216;2023-05-16T08:51:13;22.27;;;6.35;;
42590;SDS011;28218;53.342;-6.216;2023-05-16T08:54:01;17.87;;;3.97;;
42590;SDS011;28218;53.342;-6.216;2023-05-16T08:56:31;20.27;;;5.05;;
42590;SDS011;28218;53.342;-6.216;2023-05-16T08:59:01;16.63;;;3.55;;
42590;SDS011;28218;53.342;-6.216;2023-05-16T09:01:30;13.98;;;3.55;;
42590;SDS011;28218;53.342;-6.216;2023-05-16T09:03:59;27.50;;;5.20;;
42590;SDS011;28218;53.342;-6.216;2023-05-16T09:06:28;21.40;;;4.32;;
42590;SDS011;28218;53.342;-6.216;2023-05-16T09:08:57;21.23;;;4.18;;
42590;SDS011;28218;53.342;-6.216;2023-05-16T09:11:26;14.68;;;3.53;;
42590;SDS011;28218;53.342;-6.216;2023-05-16T09:13:55;22.38;;;4.63;;
42590;SDS011;28218;53.342;-6.216;2023-05-16T09:16:23;15.88;;;4.38;;
42590;SDS011;28218;53.342;-6.216;2023-05-16T09:18:52;17.00;;;3.70;;
42590;SDS011;28218;53.342;-6.216;2023-05-16T09:21:25;17.30;;;4.55;;
42590;SDS011;28218;53.342;-6.216;2023-05-16T09:26:24;17.95;;;5.10;;
42590;SDS011;28218;53.342;-6.216;2023-05-16T09:28:53;14.05;;;3.20;;
42590;SDS011;28218;53.342;-6.216;2023-05-16T09:31:23;20.33;;;3.88;;
42590;SDS011;28218;53.342;-6.216;2023-05-16T09:33:52;10.68;;;3.53;;
42590;SDS011;28218;53.342;-6.216;2023-05-16T09:36:22;13.88;;;4.15;;
42590;SDS011;28218;53.342;-6.216;2023-05-16T09:38:51;17.70;;;3.67;;
42590;SDS011;28218;53.342;-6.216;2023-05-16T09:41:20;27.45;;;4.18;;
42590;SDS011;28218;53.342;-6.216;2023-05-16T09:43:50;17.92;;;3.40;;
42590;SDS011;28218;53.342;-6.216;2023-05-16T09:46:18;13.93;;;4.07;;
42590;SDS011;28218;53.342;-6.216;2023-05-16T09:48:53;19.48;;;3.75;;
42590;SDS011;28218;53.342;-6.216;2023-05-16T09:51:22;14.68;;;4.18;;
42590;SDS011;28218;53.342;-6.216;2023-05-16T09:53:50;10.95;;;3.20;;
42590;SDS011;28218;53.342;-6.216;2023-05-16T09:56:19;16.10;;;3.78;;
42590;SDS011;28218;53.342;-6.216;2023-05-16T09:58:47;16.55;;;2.92;;
42590;SDS011;28218;53.342;-6.216;2023-05-16T10:01:20;16.10;;;3.90;;
42590;SDS011;28218;53.342;-6.216;2023-05-16T10:03:50;14.18;;;4.18;;
42590;SDS011;28218;53.342;-6.216;2023-05-16T10:06:19;15.18;;;3.70;;
42590;SDS011;28218;53.342;-6.216;2023-05-16T10:08:48;13.25;;;3.58;;
42590;SDS011;28218;53.342;-6.216;2023-05-16T10:11:17;15.43;;;3.92;;
42590;SDS011;28218;53.342;-6.216;2023-05-16T10:13:47;15.25;;;3.35;;
42590;SDS011;28218;53.342;-6.216;2023-05-16T10:16:20;15.73;;;3.55;;
42590;SDS011;28218;53.342;-6.216;2023-05-16T10:18:50;13.05;;;3.58;;
42590;SDS011;28218;53.342;-6.216;2023-05-16T10:21:18;10.27;;;3.40;;
42590;SDS011;28218;53.342;-6.216;2023-05-16T10:23:50;13.18;;;3.55;;
42590;SDS011;28218;53.342;-6.216;2023-05-16T10:26:19;18.48;;;4.45;;
42590;SDS011;28218;53.342;-6.216;2023-05-16T10:28:49;12.40;;;3.50;;
42590;SDS011;28218;53.342;-6.216;2023-05-16T10:31:19;19.98;;;4.45;;
42590;SDS011;28218;53.342;-6.216;2023-05-16T10:33:48;18.20;;;4.57;;
42590;SDS011;28218;53.342;-6.216;2023-05-16T10:36:17;13.00;;;5.70;;
42590;SDS011;28218;53.342;-6.216;2023-05-16T10:38:45;25.70;;;5.90;;
42590;SDS011;28218;53.342;-6.216;2023-05-16T10:41:15;12.60;;;4.22;;
42590;SDS011;28218;53.342;-6.216;2023-05-16T10:43:44;13.50;;;3.80;;
42590;SDS011;28218;53.342;-6.216;2023-05-16T10:46:25;9.23;;;3.83;;
42590;SDS011;28218;53.342;-6.216;2023-05-16T10:48:55;14.20;;;3.58;;
42590;SDS011;28218;53.342;-6.216;2023-05-16T10:51:34;8.32;;;3.33;;
42590;SDS011;28218;53.342;-6.216;2023-05-16T10:54:04;14.95;;;4.55;;
42590;SDS011;28218;53.342;-6.216;2023-05-16T10:56:35;21.60;;;4.43;;
42590;SDS011;28218;53.342;-6.216;2023-05-16T10:59:03;17.80;;;4.15;;
42590;SDS011;28218;53.342;-6.216;2023-05-16T11:01:52;12.82;;;3.17;;
42590;SDS011;28218;53.342;-6.216;2023-05-16T11:04:22;18.40;;;4.88;;
42590;SDS011;28218;53.342;-6.216;2023-05-16T11:06:51;14.27;;;4.47;;
42590;SDS011;28218;53.342;-6.216;2023-05-16T11:11:56;16.48;;;3.95;;
42590;SDS011;28218;53.342;-6.216;2023-05-16T11:14:35;9.45;;;2.97;;
42590;SDS011;28218;53.342;-6.216;2023-05-16T11:17:07;11.50;;;3.80;;
42590;SDS011;28218;53.342;-6.216;2023-05-16T11:19:41;12.85;;;3.90;;
42590;SDS011;28218;53.342;-6.216;2023-05-16T11:22:12;9.20;;;3.20;;
42590;SDS011;28218;53.342;-6.216;2023-05-16T11:24:55;13.18;;;3.70;;
42590;SDS011;28218;53.342;-6.216;2023-05-16T11:27:27;11.43;;;4.05;;
42590;SDS011;28218;53.342;-6.216;2023-05-16T11:30:00;9.85;;;4.32;;
42590;SDS011;28218;53.342;-6.216;2023-05-16T11:32:40;12.40;;;3.88;;
42590;SDS011;28218;53.342;-6.216;2023-05-16T11:35:10;14.15;;;3.90;;
42590;SDS011;28218;53.342;-6.216;2023-05-16T11:37:40;11.05;;;4.05;;
42590;SDS011;28218;53.342;-6.216;2023-05-16T11:40:10;8.20;;;3.78;;
42590;SDS011;28218;53.342;-6.216;2023-05-16T11:42:40;10.65;;;4.00;;
42590;SDS011;28218;53.342;-6.216;2023-05-16T11:45:10;10.05;;;3.92;;
42590;SDS011;28218;53.342;-6.216;2023-05-16T11:47:43;21.77;;;4.53;;
42590;SDS011;28218;53.342;-6.216;2023-05-16T11:50:14;16.27;;;4.13;;
42590;SDS011;28218;53.342;-6.216;2023-05-16T11:52:44;11.35;;;4.35;;
42590;SDS011;28218;53.342;-6.216;2023-05-16T11:55:14;11.25;;;4.25;;
42590;SDS011;28218;53.342;-6.216;2023-05-16T11:58:03;11.15;;;3.50;;
42590;SDS011;28218;53.342;-6.216;2023-05-16T12:00:32;14.93;;;4.72;;
42590;SDS011;28218;53.342;-6.216;2023-05-16T12:03:02;12.30;;;5.25;;
42590;SDS011;28218;53.342;-6.216;2023-05-16T12:08:01;10.23;;;3.63;;
42590;SDS011;28218;53.342;-6.216;2023-05-16T12:10:30;10.57;;;3.60;;
42590;SDS011;28218;53.342;-6.216;2023-05-16T12:13:00;15.10;;;3.75;;
42590;SDS011;28218;53.342;-6.216;2023-05-16T12:15:30;20.60;;;4.50;;
42590;SDS011;28218;53.342;-6.216;2023-05-16T12:17:58;14.15;;;4.55;;
42590;SDS011;28218;53.342;-6.216;2023-05-16T12:20:29;14.60;;;4.10;;
42590;SDS011;28218;53.342;-6.216;2023-05-16T12:22:57;10.65;;;3.63;;
42590;SDS011;28218;53.342;-6.216;2023-05-16T12:25:26;16.27;;;4.38;;
42590;SDS011;28218;53.342;-6.216;2023-05-16T12:27:57;14.87;;;3.37;;
42590;SDS011;28218;53.342;-6.216;2023-05-16T12:30:27;15.52;;;4.70;;
42590;SDS011;28218;53.342;-6.216;2023-05-16T12:32:57;17.38;;;3.63;;
42590;SDS011;28218;53.342;-6.216;2023-05-16T12:35:30;12.30;;;5.13;;
42590;SDS011;28218;53.342;-6.216;2023-05-16T12:37:59;19.90;;;4.68;;
42590;SDS011;28218;53.342;-6.216;2023-05-16T12:40:30;15.23;;;4.00;;
42590;SDS011;28218;53.342;-6.216;2023-05-16T12:42:59;10.63;;;3.45;;
42590;SDS011;28218;53.342;-6.216;2023-05-16T12:45:28;13.27;;;4.15;;
42590;SDS011;28218;53.342;-6.216;2023-05-16T12:48:03;17.08;;;4.28;;
42590;SDS011;28218;53.342;-6.216;2023-05-16T12:50:34;16.88;;;4.10;;
42590;SDS011;28218;53.342;-6.216;2023-05-16T12:53:02;14.60;;;5.00;;
42590;SDS011;28218;53.342;-6.216;2023-05-16T12:55:31;15.00;;;3.63;;
42590;SDS011;28218;53.342;-6.216;2023-05-16T12:57:59;13.18;;;4.40;;
42590;SDS011;28218;53.342;-6.216;2023-05-16T13:00:28;13.15;;;3.47;;
42590;SDS011;28218;53.342;-6.216;2023-05-16T13:02:57;14.13;;;3.88;;
42590;SDS011;28218;53.342;-6.216;2023-05-16T13:05:25;10.98;;;3.75;;
42590;SDS011;28218;53.342;-6.216;2023-05-16T13:07:55;14.15;;;3.60;;
42590;SDS011;28218;53.342;-6.216;2023-05-16T13:10:23;10.93;;;3.17;;
42590;SDS011;28218;53.342;-6.216;2023-05-16T13:12:52;14.20;;;4.03;;
42590;SDS011;28218;53.342;-6.216;2023-05-16T13:15:23;11.00;;;3.65;;
42590;SDS011;28218;53.342;-6.216;2023-05-16T13:17:53;15.23;;;3.92;;
42590;SDS011;28218;53.342;-6.216;2023-05-16T13:20:21;13.85;;;4.00;;
42590;SDS011;28218;53.342;-6.216;2023-05-16T13:22:50;16.67;;;3.53;;
42590;SDS011;28218;53.342;-6.216;2023-05-16T13:25:19;11.77;;;3.70;;
42590;SDS011;28218;53.342;-6.216;2023-05-16T13:27:49;8.85;;;3.45;;
42590;SDS011;28218;53.342;-6.216;2023-05-16T13:30:17;9.82;;;3.25;;
42590;SDS011;28218;53.342;-6.216;2023-05-16T13:32:46;12.57;;;4.20;;
42590;SDS011;28218;53.342;-6.216;2023-05-16T13:35:15;11.45;;;3.90;;
42590;SDS011;28218;53.342;-6.216;2023-05-16T13:37:43;10.02;;;3.38;;
42590;SDS011;28218;53.342;-6.216;2023-05-16T13:40:12;10.43;;;3.55;;
42590;SDS011;28218;53.342;-6.216;2023-05-16T13:42:41;7.72;;;2.95;;
42590;SDS011;28218;53.342;-6.216;2023-05-16T13:45:09;11.57;;;3.67;;
42590;SDS011;28218;53.342;-6.216;2023-05-16T13:47:38;9.88;;;3.35;;
42590;SDS011;28218;53.342;-6.216;2023-05-16T13:50:07;8.57;;;3.45;;
42590;SDS011;28218;53.342;-6.216;2023-05-16T13:52:37;16.90;;;4.13;;
42590;SDS011;28218;53.342;-6.216;2023-05-16T13:55:06;9.52;;;3.65;;
42590;SDS011;28218;53.342;-6.216;2023-05-16T13:57:35;9.18;;;3.58;;
42590;SDS011;28218;53.342;-6.216;2023-05-16T14:00:05;13.23;;;3.65;;
42590;SDS011;28218;53.342;-6.216;2023-05-16T14:02:41;7.85;;;3.28;;
42590;SDS011;28218;53.342;-6.216;2023-05-16T14:05:09;13.68;;;3.88;;
42590;SDS011;28218;53.342;-6.216;2023-05-16T14:07:37;9.52;;;3.53;;
42590;SDS011;28218;53.342;-6.216;2023-05-16T14:10:07;9.55;;;3.47;;
42590;SDS011;28218;53.342;-6.216;2023-05-16T14:12:36;11.75;;;3.53;;
42590;SDS011;28218;53.342;-6.216;2023-05-16T14:15:06;16.17;;;3.92;;
42590;SDS011;28218;53.342;-6.216;2023-05-16T14:17:35;13.15;;;3.78;;
42590;SDS011;28218;53.342;-6.216;2023-05-16T14:20:04;9.60;;;3.83;;
42590;SDS011;28218;53.342;-6.216;2023-05-16T14:22:36;14.02;;;3.58;;
42590;SDS011;28218;53.342;-6.216;2023-05-16T14:25:04;15.57;;;4.00;;
42590;SDS011;28218;53.342;-6.216;2023-05-16T14:27:33;11.38;;;3.33;;
42590;SDS011;28218;53.342;-6.216;2023-05-16T14:30:02;14.07;;;3.42;;
42590;SDS011;28218;53.342;-6.216;2023-05-16T14:32:32;10.50;;;3.10;;
42590;SDS011;28218;53.342;-6.216;2023-05-16T14:35:00;13.55;;;4.22;;
42590;SDS011;28218;53.342;-6.216;2023-05-16T14:37:30;12.73;;;3.83;;
42590;SDS011;28218;53.342;-6.216;2023-05-16T14:39:59;14.93;;;4.22;;
42590;SDS011;28218;53.342;-6.216;2023-05-16T14:42:27;6.30;;;2.90;;
42590;SDS011;28218;53.342;-6.216;2023-05-16T14:44:55;10.88;;;3.88;;
42590;SDS011;28218;53.342;-6.216;2023-05-16T14:47:23;11.40;;;3.83;;
42590;SDS011;28218;53.342;-6.216;2023-05-16T14:49:54;11.25;;;3.58;;